Time;durP1;ratioP1;P1;durP2;ratioP2;P2;SDS_P1;SDS_P2;PMS_P1;PMS_P2;Temp;Humidity;BMP_temperature;BMP_pressure;BME280_temperature;BME280_humidity;BME280_pressure;Samples;Min_cycle;Max_cycle;Signal;HPM_P1;HPM_P2
2021/08/20 00:01:37;;;;;;;9.55;4.40;;;;;;;;;;5011030;28;20045;-54
2021/08/20 00:04:03;;;;;;;9.32;4.15;;;;;;;;;;5004613;28;20474;-56
2021/08/20 00:06:30;;;;;;;9.80;3.97;;;;;;;;;;5001384;28;20030;-57
2021/08/20 00:08:55;;;;;;;9.05;3.85;;;;;;;;;;4999229;28;20033;-56
2021/08/20 00:11:21;;;;;;;8.75;4.15;;;;;;;;;;5001755;28;20049;-54
2021/08/20 00:13:47;;;;;;;10.85;4.50;;;;;;;;;;5003908;28;20038;-55
2021/08/20 00:16:13;;;;;;;7.68;4.07;;;;;;;;;;5003417;28;20045;-55
2021/08/20 00:18:38;;;;;;;8.85;3.88;;;;;;;;;;5007095;28;20522;-54
2021/08/20 00:21:04;;;;;;;9.82;4.30;;;;;;;;;;5015296;28;20049;-56
2021/08/20 00:23:30;;;;;;;7.03;3.80;;;;;;;;;;5002813;28;20142;-54
2021/08/20 00:25:56;;;;;;;8.82;4.00;;;;;;;;;;5001019;28;20076;-55
2021/08/20 00:28:21;;;;;;;9.32;3.80;;;;;;;;;;4999274;28;20536;-56
2021/08/20 00:30:50;;;;;;;8.88;4.13;;;;;;;;;;5019788;28;20038;-55
2021/08/20 00:33:16;;;;;;;6.88;3.47;;;;;;;;;;4995143;28;20034;-56
2021/08/20 00:35:41;;;;;;;9.38;3.85;;;;;;;;;;4995939;28;20088;-55
2021/08/20 00:38:07;;;;;;;7.88;3.75;;;;;;;;;;5012809;28;20041;-56
2021/08/20 00:40:33;;;;;;;8.05;3.92;;;;;;;;;;4997396;28;20042;-54
2021/08/20 00:42:59;;;;;;;8.85;4.05;;;;;;;;;;5000668;28;20775;-56
2021/08/20 00:45:25;;;;;;;8.45;3.72;;;;;;;;;;4998141;28;20129;-54
2021/08/20 00:47:51;;;;;;;7.40;3.35;;;;;;;;;;4999356;28;20540;-53
2021/08/20 00:50:16;;;;;;;8.30;3.60;;;;;;;;;;4999291;28;20850;-54
2021/08/20 00:52:42;;;;;;;8.27;3.78;;;;;;;;;;4998765;28;20041;-51
2021/08/20 00:55:10;;;;;;;12.10;3.90;;;;;;;;;;5013843;28;20077;-54
2021/08/20 00:57:36;;;;;;;7.88;3.83;;;;;;;;;;5017619;28;20033;-55
2021/08/20 01:00:02;;;;;;;8.60;4.15;;;;;;;;;;5017810;28;20120;-52
2021/08/20 01:02:28;;;;;;;10.95;4.38;;;;;;;;;;5015621;28;20045;-52
2021/08/20 01:04:54;;;;;;;10.15;4.28;;;;;;;;;;5017183;28;20045;-54
2021/08/20 01:07:20;;;;;;;9.30;4.35;;;;;;;;;;5017072;28;20444;-50
2021/08/20 01:09:48;;;;;;;9.38;3.85;;;;;;;;;;5016804;28;20044;-53
2021/08/20 01:12:14;;;;;;;8.45;3.75;;;;;;;;;;5018553;28;20156;-52
2021/08/20 01:14:40;;;;;;;12.75;4.03;;;;;;;;;;5017688;28;20063;-53
2021/08/20 01:17:08;;;;;;;7.97;3.33;;;;;;;;;;5017987;28;20037;-54
2021/08/20 01:19:34;;;;;;;8.20;3.45;;;;;;;;;;5017273;28;20372;-52
2021/08/20 01:22:01;;;;;;;7.03;3.40;;;;;;;;;;5017463;28;20045;-52
2021/08/20 01:24:28;;;;;;;8.43;3.40;;;;;;;;;;5017534;28;20053;-50
2021/08/20 01:26:53;;;;;;;7.32;3.35;;;;;;;;;;5018008;28;20528;-53
2021/08/20 01:29:20;;;;;;;10.85;4.25;;;;;;;;;;5017076;28;20034;-54
2021/08/20 01:31:47;;;;;;;7.95;3.72;;;;;;;;;;5017590;28;20199;-55
2021/08/20 01:34:13;;;;;;;7.80;3.53;;;;;;;;;;5017632;28;20498;-55
2021/08/20 01:36:39;;;;;;;8.98;3.47;;;;;;;;;;5016508;28;20045;-55
2021/08/20 01:39:06;;;;;;;7.78;3.67;;;;;;;;;;5017816;28;20135;-56
2021/08/20 01:41:31;;;;;;;7.45;3.55;;;;;;;;;;5014052;28;20034;-55
2021/08/20 01:44:00;;;;;;;6.55;3.45;;;;;;;;;;5016883;28;20068;-55
2021/08/20 01:46:26;;;;;;;7.80;3.58;;;;;;;;;;5015922;28;22033;-55
2021/08/20 01:48:53;;;;;;;8.10;3.53;;;;;;;;;;5015725;28;20041;-54
2021/08/20 01:51:23;;;;;;;8.82;3.70;;;;;;;;;;5014848;28;20038;-55
2021/08/20 01:53:49;;;;;;;7.72;3.28;;;;;;;;;;5017240;28;20122;-55
2021/08/20 01:56:19;;;;;;;9.50;3.45;;;;;;;;;;5016904;28;21928;-52
2021/08/20 01:58:45;;;;;;;8.18;3.28;;;;;;;;;;5000844;28;20071;-53
2021/08/20 02:01:12;;;;;;;8.30;3.58;;;;;;;;;;5016417;28;20045;-53
2021/08/20 02:03:37;;;;;;;7.97;3.78;;;;;;;;;;5015395;28;20615;-55
2021/08/20 02:06:04;;;;;;;8.40;3.78;;;;;;;;;;5016780;28;20042;-53
2021/08/20 02:08:29;;;;;;;7.28;3.58;;;;;;;;;;5016383;28;20430;-55
2021/08/20 02:10:55;;;;;;;8.75;3.70;;;;;;;;;;5017064;28;20053;-53
2021/08/20 02:13:22;;;;;;;8.40;3.38;;;;;;;;;;5017197;28;20107;-53
2021/08/20 02:15:48;;;;;;;8.35;3.65;;;;;;;;;;5017016;28;20409;-51
2021/08/20 02:18:15;;;;;;;8.20;3.47;;;;;;;;;;5016512;28;20405;-53
2021/08/20 02:20:41;;;;;;;7.72;4.03;;;;;;;;;;5015671;28;20033;-51
2021/08/20 02:23:11;;;;;;;8.73;3.63;;;;;;;;;;5017093;28;20140;-51
2021/08/20 02:25:37;;;;;;;8.80;4.03;;;;;;;;;;5016750;28;21582;-54
2021/08/20 02:28:03;;;;;;;9.45;4.05;;;;;;;;;;5018505;28;20176;-51
2021/08/20 02:30:29;;;;;;;9.70;3.67;;;;;;;;;;5016843;28;20038;-54
2021/08/20 02:32:55;;;;;;;8.88;3.47;;;;;;;;;;5018253;28;20477;-52
2021/08/20 02:35:24;;;;;;;7.60;3.65;;;;;;;;;;5017654;28;20045;-55
2021/08/20 02:37:50;;;;;;;12.15;3.83;;;;;;;;;;5017968;28;20094;-55
2021/08/20 02:40:16;;;;;;;8.93;3.85;;;;;;;;;;5015166;28;20055;-55
2021/08/20 02:42:42;;;;;;;12.68;3.92;;;;;;;;;;5016496;28;20691;-55
2021/08/20 02:45:08;;;;;;;10.30;4.50;;;;;;;;;;5016213;28;20048;-53
2021/08/20 02:47:34;;;;;;;8.32;3.70;;;;;;;;;;5016574;28;20717;-55
2021/08/20 02:50:00;;;;;;;7.70;3.53;;;;;;;;;;5013266;28;20045;-54
2021/08/20 02:52:26;;;;;;;8.95;3.47;;;;;;;;;;5012269;28;20042;-57
2021/08/20 02:54:52;;;;;;;9.70;3.92;;;;;;;;;;5014694;28;20038;-55
2021/08/20 02:57:18;;;;;;;8.32;3.92;;;;;;;;;;5014197;28;20111;-55
2021/08/20 02:59:44;;;;;;;7.15;3.85;;;;;;;;;;5013234;28;20497;-55
2021/08/20 03:02:09;;;;;;;8.40;3.67;;;;;;;;;;5012258;28;20045;-53
2021/08/20 03:04:35;;;;;;;9.18;3.65;;;;;;;;;;5014545;28;20055;-53
2021/08/20 03:07:01;;;;;;;8.57;3.97;;;;;;;;;;5015701;28;20045;-53
2021/08/20 03:09:27;;;;;;;9.75;4.13;;;;;;;;;;5015219;28;20116;-51
2021/08/20 03:11:52;;;;;;;9.02;4.30;;;;;;;;;;5015259;28;20055;-55
2021/08/20 03:14:20;;;;;;;8.18;3.75;;;;;;;;;;5016613;28;20561;-54
2021/08/20 03:16:46;;;;;;;7.90;3.90;;;;;;;;;;5015984;28;20057;-53
2021/08/20 03:19:12;;;;;;;12.00;3.90;;;;;;;;;;5015443;28;20402;-55
2021/08/20 03:21:38;;;;;;;10.52;4.60;;;;;;;;;;5014824;28;20084;-54
2021/08/20 03:24:04;;;;;;;10.13;3.83;;;;;;;;;;5015424;28;20514;-56
2021/08/20 03:26:29;;;;;;;10.98;4.00;;;;;;;;;;5015265;28;20041;-56
2021/08/20 03:28:55;;;;;;;11.13;4.13;;;;;;;;;;5014463;28;20053;-55
2021/08/20 03:31:21;;;;;;;9.95;4.75;;;;;;;;;;5013455;28;20025;-55
2021/08/20 03:33:47;;;;;;;10.73;5.15;;;;;;;;;;5012524;28;20045;-53
2021/08/20 03:36:14;;;;;;;10.45;4.18;;;;;;;;;;5014989;28;20115;-55
2021/08/20 03:38:40;;;;;;;11.02;4.45;;;;;;;;;;5013495;28;20064;-55
2021/08/20 03:41:06;;;;;;;12.43;4.38;;;;;;;;;;5013702;28;20052;-57
2021/08/20 03:43:31;;;;;;;9.93;3.72;;;;;;;;;;5014052;28;20046;-55
2021/08/20 03:45:57;;;;;;;10.13;4.22;;;;;;;;;;5016330;28;20044;-55
2021/08/20 03:48:23;;;;;;;8.48;3.83;;;;;;;;;;5012812;28;20099;-55
2021/08/20 03:50:49;;;;;;;10.40;4.00;;;;;;;;;;5013077;28;20048;-54
2021/08/20 03:53:15;;;;;;;11.32;3.97;;;;;;;;;;5014411;28;20088;-54
2021/08/20 03:55:41;;;;;;;8.60;4.20;;;;;;;;;;5012644;28;20041;-53
2021/08/20 03:58:07;;;;;;;8.27;3.78;;;;;;;;;;5013987;28;20125;-54
2021/08/20 04:00:34;;;;;;;10.85;3.85;;;;;;;;;;5013081;28;20037;-54
2021/08/20 04:02:59;;;;;;;8.18;3.92;;;;;;;;;;5013437;28;20056;-54
2021/08/20 04:05:25;;;;;;;9.75;3.60;;;;;;;;;;5013682;28;20030;-54
2021/08/20 04:07:51;;;;;;;9.73;4.03;;;;;;;;;;5014230;28;20041;-53
2021/08/20 04:10:17;;;;;;;8.02;4.00;;;;;;;;;;5013523;28;20061;-55
2021/08/20 04:12:43;;;;;;;8.35;4.20;;;;;;;;;;5014162;28;20044;-55
2021/08/20 04:15:09;;;;;;;7.38;3.40;;;;;;;;;;5014953;28;20547;-55
2021/08/20 04:17:35;;;;;;;12.35;3.97;;;;;;;;;;5012677;28;20053;-52
2021/08/20 04:20:01;;;;;;;9.25;3.63;;;;;;;;;;5014611;28;20049;-52
2021/08/20 04:22:27;;;;;;;6.80;3.45;;;;;;;;;;5013572;28;20383;-51
2021/08/20 04:24:52;;;;;;;8.95;3.80;;;;;;;;;;5014345;28;20057;-55
2021/08/20 04:27:18;;;;;;;7.97;3.17;;;;;;;;;;5012051;28;20065;-54
2021/08/20 04:29:44;;;;;;;6.18;2.72;;;;;;;;;;5013909;28;20331;-54
2021/08/20 04:32:10;;;;;;;7.07;3.00;;;;;;;;;;5014007;28;20045;-55
2021/08/20 04:34:36;;;;;;;7.00;3.05;;;;;;;;;;5012442;28;20099;-54
2021/08/20 04:37:02;;;;;;;6.50;2.85;;;;;;;;;;5012681;28;20048;-55
2021/08/20 04:39:28;;;;;;;8.25;2.88;;;;;;;;;;5011240;28;20219;-55
2021/08/20 04:41:53;;;;;;;8.07;2.67;;;;;;;;;;5012728;28;20049;-55
2021/08/20 04:44:19;;;;;;;8.20;2.67;;;;;;;;;;5015720;28;20691;-55
2021/08/20 04:46:45;;;;;;;7.63;2.35;;;;;;;;;;5017301;28;20033;-52
2021/08/20 04:49:11;;;;;;;6.25;2.47;;;;;;;;;;5015530;28;20080;-53
2021/08/20 04:51:37;;;;;;;7.13;2.30;;;;;;;;;;5014763;28;20029;-54
2021/08/20 04:54:04;;;;;;;9.55;2.50;;;;;;;;;;5015999;28;20180;-55
2021/08/20 04:56:30;;;;;;;5.03;2.35;;;;;;;;;;5016007;28;20037;-56
2021/08/20 04:58:56;;;;;;;6.25;2.35;;;;;;;;;;5015777;28;20134;-55
2021/08/20 05:01:22;;;;;;;5.78;2.20;;;;;;;;;;5015024;28;20044;-55
2021/08/20 05:03:48;;;;;;;6.07;2.20;;;;;;;;;;5016396;28;20052;-56
2021/08/20 05:06:14;;;;;;;5.25;2.50;;;;;;;;;;5017028;28;20121;-55
2021/08/20 05:08:40;;;;;;;4.45;2.20;;;;;;;;;;5015544;28;20061;-50
2021/08/20 05:11:06;;;;;;;5.95;2.40;;;;;;;;;;5018052;28;20030;-56
2021/08/20 05:13:32;;;;;;;5.50;2.25;;;;;;;;;;5015959;28;20091;-53
2021/08/20 05:15:58;;;;;;;4.40;1.95;;;;;;;;;;5018067;28;22017;-53
2021/08/20 05:18:24;;;;;;;5.75;2.33;;;;;;;;;;5016312;28;20050;-52
2021/08/20 05:20:49;;;;;;;5.13;2.25;;;;;;;;;;5017815;28;20124;-54
2021/08/20 05:23:15;;;;;;;5.68;2.08;;;;;;;;;;5017421;28;20049;-54
2021/08/20 05:25:41;;;;;;;4.82;2.08;;;;;;;;;;5015631;28;20042;-54
2021/08/20 05:28:09;;;;;;;7.05;2.03;;;;;;;;;;5015988;28;20044;-53
2021/08/20 05:30:35;;;;;;;4.75;1.60;;;;;;;;;;5016206;28;20040;-53
2021/08/20 05:33:01;;;;;;;3.97;1.67;;;;;;;;;;5014793;28;20405;-53
2021/08/20 05:35:27;;;;;;;4.90;1.90;;;;;;;;;;5015803;28;20042;-53
2021/08/20 05:37:53;;;;;;;5.18;1.67;;;;;;;;;;5015021;28;20052;-53
2021/08/20 05:40:19;;;;;;;5.03;1.98;;;;;;;;;;5015879;28;20037;-53
2021/08/20 05:42:44;;;;;;;3.95;1.70;;;;;;;;;;5016463;28;20426;-51
2021/08/20 05:45:11;;;;;;;5.50;1.85;;;;;;;;;;5016421;28;20052;-54
2021/08/20 05:47:37;;;;;;;4.40;1.73;;;;;;;;;;5015743;28;20037;-54
2021/08/20 05:50:03;;;;;;;5.20;1.65;;;;;;;;;;5017080;28;20063;-55
2021/08/20 05:52:29;;;;;;;5.28;1.70;;;;;;;;;;5015226;28;20529;-53
2021/08/20 05:54:55;;;;;;;6.13;1.63;;;;;;;;;;5014480;28;20049;-54
2021/08/20 05:57:21;;;;;;;4.93;1.80;;;;;;;;;;5015780;28;20045;-54
2021/08/20 05:59:46;;;;;;;5.28;1.90;;;;;;;;;;5017689;28;20038;-53
2021/08/20 06:02:12;;;;;;;4.35;1.60;;;;;;;;;;5018491;28;20041;-55
2021/08/20 06:04:38;;;;;;;4.75;1.90;;;;;;;;;;5017153;28;20049;-51
2021/08/20 06:07:07;;;;;;;4.57;1.52;;;;;;;;;;5017080;28;20477;-54
2021/08/20 06:09:33;;;;;;;4.30;1.80;;;;;;;;;;5014653;28;20584;-54
2021/08/20 06:11:59;;;;;;;4.20;1.60;;;;;;;;;;5016371;28;20042;-51
2021/08/20 06:14:25;;;;;;;4.43;1.55;;;;;;;;;;5017955;28;20041;-53
2021/08/20 06:16:57;;;;;;;4.68;1.92;;;;;;;;;;5017321;28;20133;-51
2021/08/20 06:19:23;;;;;;;5.07;1.67;;;;;;;;;;5016897;28;20041;-54
2021/08/20 06:21:49;;;;;;;5.20;1.65;;;;;;;;;;5016557;28;20041;-53
2021/08/20 06:24:15;;;;;;;5.00;1.70;;;;;;;;;;5016153;28;20069;-53
2021/08/20 06:26:41;;;;;;;5.10;1.60;;;;;;;;;;5017777;28;20069;-53
2021/08/20 06:29:07;;;;;;;4.65;2.03;;;;;;;;;;5018570;28;20069;-50
2021/08/20 06:31:32;;;;;;;3.95;1.60;;;;;;;;;;5018255;28;20076;-53
2021/08/20 06:33:58;;;;;;;4.03;1.40;;;;;;;;;;5018555;28;20037;-54
2021/08/20 06:36:25;;;;;;;4.63;1.70;;;;;;;;;;5016515;28;20080;-54
2021/08/20 06:38:51;;;;;;;5.47;1.60;;;;;;;;;;5019038;28;20144;-54
2021/08/20 06:41:17;;;;;;;5.25;1.95;;;;;;;;;;5017826;28;20041;-54
2021/08/20 06:43:42;;;;;;;4.55;1.98;;;;;;;;;;5013267;28;20050;-54
2021/08/20 06:46:08;;;;;;;5.40;1.83;;;;;;;;;;4997594;28;20041;-54
2021/08/20 06:48:34;;;;;;;3.60;1.40;;;;;;;;;;5009225;28;20040;-54
2021/08/20 06:51:00;;;;;;;5.25;1.92;;;;;;;;;;5016912;28;20687;-54
2021/08/20 06:53:27;;;;;;;4.57;1.80;;;;;;;;;;5016053;28;20140;-53
2021/08/20 06:55:53;;;;;;;4.95;1.90;;;;;;;;;;5017580;28;20091;-54
2021/08/20 06:58:19;;;;;;;5.38;1.85;;;;;;;;;;5016382;28;20498;-51
2021/08/20 07:00:45;;;;;;;4.70;2.03;;;;;;;;;;5017823;28;20144;-52
2021/08/20 07:03:11;;;;;;;5.00;1.88;;;;;;;;;;5017976;28;20430;-53
2021/08/20 07:05:37;;;;;;;6.03;1.92;;;;;;;;;;5016764;28;20052;-54
2021/08/20 07:08:05;;;;;;;4.18;1.70;;;;;;;;;;5015779;28;20119;-54
2021/08/20 07:10:31;;;;;;;5.35;2.15;;;;;;;;;;5015542;28;20042;-54
2021/08/20 07:12:57;;;;;;;4.13;1.67;;;;;;;;;;5016359;28;20103;-55
2021/08/20 07:15:23;;;;;;;4.93;2.10;;;;;;;;;;5015607;28;20037;-54
2021/08/20 07:17:49;;;;;;;4.60;1.90;;;;;;;;;;5016559;28;20049;-54
2021/08/20 07:20:15;;;;;;;4.07;1.58;;;;;;;;;;5015107;28;20148;-53
2021/08/20 07:22:40;;;;;;;4.80;1.80;;;;;;;;;;5017139;28;22220;-53
2021/08/20 07:25:07;;;;;;;5.40;1.70;;;;;;;;;;5015596;28;20045;-54
2021/08/20 07:27:33;;;;;;;5.15;1.73;;;;;;;;;;5015379;28;20120;-52
2021/08/20 07:29:59;;;;;;;7.13;2.22;;;;;;;;;;5015274;28;20414;-54
2021/08/20 07:32:25;;;;;;;4.78;1.92;;;;;;;;;;5015217;28;20028;-54
2021/08/20 07:34:51;;;;;;;5.57;1.90;;;;;;;;;;5017212;28;20050;-52
2021/08/20 07:37:16;;;;;;;4.95;1.90;;;;;;;;;;5015781;28;20033;-54
2021/08/20 07:39:42;;;;;;;4.07;1.80;;;;;;;;;;5014405;28;20096;-53
2021/08/20 07:42:08;;;;;;;5.72;1.85;;;;;;;;;;5017347;28;20042;-52
2021/08/20 07:44:34;;;;;;;8.25;1.83;;;;;;;;;;5014078;28;20106;-54
2021/08/20 07:47:00;;;;;;;4.78;1.65;;;;;;;;;;5015588;28;21037;-55
2021/08/20 07:49:29;;;;;;;4.32;1.80;;;;;;;;;;5014604;28;20041;-55
2021/08/20 07:51:56;;;;;;;4.47;1.48;;;;;;;;;;5014748;28;20029;-55
2021/08/20 07:54:22;;;;;;;5.10;1.75;;;;;;;;;;5015197;28;20068;-55
2021/08/20 07:56:48;;;;;;;5.53;1.70;;;;;;;;;;5015721;28;20092;-52
2021/08/20 07:59:14;;;;;;;6.90;2.03;;;;;;;;;;5014855;28;20417;-55
2021/08/20 08:01:40;;;;;;;4.07;1.50;;;;;;;;;;5015324;28;20530;-55
2021/08/20 08:04:06;;;;;;;4.82;1.83;;;;;;;;;;5015515;28;20592;-51
2021/08/20 08:06:32;;;;;;;5.60;1.67;;;;;;;;;;5015635;28;20648;-52
2021/08/20 08:08:58;;;;;;;5.13;1.80;;;;;;;;;;5014651;28;20801;-53
2021/08/20 08:11:24;;;;;;;4.90;1.80;;;;;;;;;;5013782;28;20049;-53
2021/08/20 08:13:50;;;;;;;6.00;1.77;;;;;;;;;;5014659;28;20505;-51
2021/08/20 08:16:15;;;;;;;4.45;1.67;;;;;;;;;;5016803;28;20128;-51
2021/08/20 08:18:42;;;;;;;5.03;1.38;;;;;;;;;;4993128;28;20694;-53
2021/08/20 08:21:07;;;;;;;4.95;1.77;;;;;;;;;;5003114;28;20037;-52
2021/08/20 08:23:33;;;;;;;5.13;1.90;;;;;;;;;;4996903;28;20042;-52
2021/08/20 08:25:59;;;;;;;3.95;1.75;;;;;;;;;;5010408;28;20041;-53
2021/08/20 08:28:25;;;;;;;4.30;1.52;;;;;;;;;;5006616;28;20105;-54
2021/08/20 08:30:51;;;;;;;4.00;1.42;;;;;;;;;;5000573;28;20042;-53
2021/08/20 08:33:18;;;;;;;4.80;1.80;;;;;;;;;;5006873;28;20508;-53
2021/08/20 08:35:44;;;;;;;3.50;1.42;;;;;;;;;;5003714;28;20686;-54
2021/08/20 08:38:14;;;;;;;4.45;1.58;;;;;;;;;;5002615;28;20037;-54
2021/08/20 08:40:44;;;;;;;5.22;1.75;;;;;;;;;;5010290;28;20041;-54
2021/08/20 08:43:10;;;;;;;3.30;1.77;;;;;;;;;;5019047;28;20048;-54
2021/08/20 08:45:37;;;;;;;4.40;1.83;;;;;;;;;;4996270;28;20037;-54
2021/08/20 08:48:04;;;;;;;3.42;1.67;;;;;;;;;;5003451;28;20119;-55
2021/08/20 08:50:30;;;;;;;3.58;1.50;;;;;;;;;;5001557;28;20501;-54
2021/08/20 08:52:56;;;;;;;4.70;1.90;;;;;;;;;;5008542;28;20066;-52
2021/08/20 08:55:22;;;;;;;5.07;1.73;;;;;;;;;;4994849;28;20154;-54
2021/08/20 08:57:48;;;;;;;4.15;1.73;;;;;;;;;;5003928;28;20041;-53
2021/08/20 09:00:14;;;;;;;4.80;1.70;;;;;;;;;;4997403;28;20034;-53
2021/08/20 09:02:40;;;;;;;4.90;1.80;;;;;;;;;;5016299;28;20056;-52
2021/08/20 09:05:10;;;;;;;5.25;1.80;;;;;;;;;;4998687;28;20061;-52
2021/08/20 09:07:37;;;;;;;4.65;1.73;;;;;;;;;;4989330;28;20078;-54
2021/08/20 09:10:15;;;;;;;4.72;1.85;;;;;;;;;;4993995;28;20030;-54
2021/08/20 09:12:42;;;;;;;5.72;2.03;;;;;;;;;;5009497;28;20044;-53
2021/08/20 09:15:09;;;;;;;5.35;1.80;;;;;;;;;;4999061;28;20507;-54
2021/08/20 09:17:35;;;;;;;5.70;1.92;;;;;;;;;;5008222;28;20065;-52
2021/08/20 09:20:14;;;;;;;4.85;2.00;;;;;;;;;;5020262;28;20041;-54
2021/08/20 09:22:40;;;;;;;3.88;1.58;;;;;;;;;;5020496;28;20085;-54
2021/08/20 09:25:06;;;;;;;4.10;1.65;;;;;;;;;;5018170;28;20051;-52
2021/08/20 09:27:32;;;;;;;5.65;1.98;;;;;;;;;;5019122;28;20808;-53
2021/08/20 09:30:10;;;;;;;4.38;1.77;;;;;;;;;;5019745;28;20584;-51
2021/08/20 09:32:42;;;;;;;5.13;1.75;;;;;;;;;;5021029;28;20123;-52
2021/08/20 09:35:07;;;;;;;3.53;1.60;;;;;;;;;;5019943;28;20423;-54
2021/08/20 09:37:33;;;;;;;5.15;2.00;;;;;;;;;;5019136;28;20128;-54
2021/08/20 09:40:06;;;;;;;3.90;1.63;;;;;;;;;;5018013;28;20386;-54
2021/08/20 09:42:32;;;;;;;4.75;1.70;;;;;;;;;;5018810;28;20047;-50
2021/08/20 09:45:11;;;;;;;4.05;1.65;;;;;;;;;;5008178;28;20042;-54
2021/08/20 09:47:44;;;;;;;5.13;1.95;;;;;;;;;;5012458;28;22232;-54
2021/08/20 09:50:10;;;;;;;3.00;1.20;;;;;;;;;;4998109;28;20046;-55
2021/08/20 09:52:36;;;;;;;4.85;1.98;;;;;;;;;;4996653;28;20045;-54
2021/08/20 09:55:02;;;;;;;3.50;1.50;;;;;;;;;;5013412;28;20037;-51
2021/08/20 09:57:28;;;;;;;4.07;1.60;;;;;;;;;;5000404;28;20042;-52
2021/08/20 09:59:55;;;;;;;5.10;1.67;;;;;;;;;;4996623;28;20034;-53
2021/08/20 10:02:23;;;;;;;8.73;1.80;;;;;;;;;;4996622;28;20038;-53
2021/08/20 10:04:49;;;;;;;4.38;1.70;;;;;;;;;;4996831;28;20050;-54
2021/08/20 10:07:17;;;;;;;4.70;1.65;;;;;;;;;;5013979;28;20109;-54
2021/08/20 10:09:45;;;;;;;4.53;1.50;;;;;;;;;;5008203;28;20183;-52
2021/08/20 10:12:11;;;;;;;3.55;1.42;;;;;;;;;;5018792;28;20041;-53
2021/08/20 10:14:37;;;;;;;5.70;2.08;;;;;;;;;;5015345;28;20640;-53
2021/08/20 10:17:03;;;;;;;3.95;1.42;;;;;;;;;;4996634;28;20050;-54
2021/08/20 10:19:29;;;;;;;4.72;1.65;;;;;;;;;;4991306;28;20525;-50
2021/08/20 10:21:56;;;;;;;4.80;1.60;;;;;;;;;;4989988;28;20046;-54
2021/08/20 10:24:22;;;;;;;4.97;1.60;;;;;;;;;;4987583;28;20050;-51
2021/08/20 10:26:51;;;;;;;4.00;1.50;;;;;;;;;;4988687;28;20043;-54
2021/08/20 10:29:21;;;;;;;4.28;1.60;;;;;;;;;;4988275;28;20481;-54
2021/08/20 10:31:47;;;;;;;2.88;1.10;;;;;;;;;;5016038;28;20049;-54
2021/08/20 10:34:32;;;;;;;4.65;1.50;;;;;;;;;;5017037;28;20041;-52
2021/08/20 10:37:04;;;;;;;4.22;1.60;;;;;;;;;;4998276;28;20038;-53
2021/08/20 10:39:30;;;;;;;3.93;1.40;;;;;;;;;;4995984;28;20104;-53
2021/08/20 10:42:07;;;;;;;4.93;1.30;;;;;;;;;;4999836;28;20038;-52
2021/08/20 10:44:37;;;;;;;3.28;1.40;;;;;;;;;;5011569;28;20429;-51
2021/08/20 10:47:03;;;;;;;3.50;1.27;;;;;;;;;;4992468;28;20077;-54
2021/08/20 10:49:35;;;;;;;3.72;1.50;;;;;;;;;;5013979;28;20041;-54
2021/08/20 10:52:02;;;;;;;4.40;1.53;;;;;;;;;;4996568;28;20046;-54
2021/08/20 10:54:30;;;;;;;4.45;1.58;;;;;;;;;;5009394;28;20052;-51
2021/08/20 10:56:56;;;;;;;4.30;1.75;;;;;;;;;;5017642;28;20049;-54
2021/08/20 10:59:43;;;;;;;3.83;1.73;;;;;;;;;;5008229;28;20108;-52
2021/08/20 11:02:18;;;;;;;4.72;1.67;;;;;;;;;;5002915;28;20077;-55
2021/08/20 11:04:57;;;;;;;3.40;1.33;;;;;;;;;;4998201;28;20050;-51
2021/08/20 11:07:35;;;;;;;5.68;1.60;;;;;;;;;;5005579;28;20041;-54
2021/08/20 11:10:10;;;;;;;3.97;1.42;;;;;;;;;;4992210;28;20584;-54
2021/08/20 11:12:37;;;;;;;4.88;1.75;;;;;;;;;;4997036;28;20038;-55
2021/08/20 11:15:21;;;;;;;4.22;1.90;;;;;;;;;;5003497;28;20128;-54
2021/08/20 11:17:50;;;;;;;3.78;1.50;;;;;;;;;;5000974;28;20577;-54
2021/08/20 11:20:17;;;;;;;4.55;1.60;;;;;;;;;;5002354;28;20033;-54
2021/08/20 11:22:43;;;;;;;4.50;1.92;;;;;;;;;;5016310;28;20045;-54
2021/08/20 11:25:15;;;;;;;5.15;1.70;;;;;;;;;;4997504;28;20050;-53
2021/08/20 11:27:53;;;;;;;4.70;1.42;;;;;;;;;;5010612;28;20087;-53
2021/08/20 11:30:19;;;;;;;5.57;1.67;;;;;;;;;;4996241;28;20030;-52
2021/08/20 11:32:44;;;;;;;3.47;1.60;;;;;;;;;;5005558;28;20037;-54
2021/08/20 11:35:10;;;;;;;3.40;1.38;;;;;;;;;;5002665;28;20113;-54
2021/08/20 11:37:36;;;;;;;4.57;1.60;;;;;;;;;;5000340;28;20041;-54
2021/08/20 11:40:10;;;;;;;4.50;1.58;;;;;;;;;;5008557;28;20044;-52
2021/08/20 11:42:36;;;;;;;3.47;1.25;;;;;;;;;;5015439;28;20041;-52
2021/08/20 11:45:21;;;;;;;3.55;1.50;;;;;;;;;;5015473;28;20049;-54
2021/08/20 11:47:47;;;;;;;5.00;1.65;;;;;;;;;;4999886;28;20052;-55
2021/08/20 11:50:13;;;;;;;4.68;1.67;;;;;;;;;;5012947;28;20045;-53
2021/08/20 11:52:46;;;;;;;4.93;1.88;;;;;;;;;;5000056;28;20065;-52
2021/08/20 11:55:16;;;;;;;4.28;1.35;;;;;;;;;;4991667;28;20042;-55
2021/08/20 11:57:42;;;;;;;4.00;1.70;;;;;;;;;;4990014;28;20590;-54
2021/08/20 12:00:08;;;;;;;4.50;1.70;;;;;;;;;;4990166;28;20041;-54
2021/08/20 12:02:34;;;;;;;4.32;1.80;;;;;;;;;;5000782;28;20632;-54
2021/08/20 12:05:12;;;;;;;4.45;1.85;;;;;;;;;;4994091;28;20054;-53
2021/08/20 12:07:38;;;;;;;4.05;1.48;;;;;;;;;;4996545;28;20050;-54
2021/08/20 12:10:04;;;;;;;5.10;1.58;;;;;;;;;;5011232;28;20042;-55
2021/08/20 12:12:33;;;;;;;3.88;1.77;;;;;;;;;;5003989;28;20034;-55
2021/08/20 12:15:00;;;;;;;4.55;1.50;;;;;;;;;;4992635;28;20045;-52
2021/08/20 12:17:30;;;;;;;4.85;1.45;;;;;;;;;;4990790;28;20687;-55
2021/08/20 12:19:56;;;;;;;4.80;1.98;;;;;;;;;;4990737;28;20050;-54
2021/08/20 12:22:32;;;;;;;7.15;2.00;;;;;;;;;;4996882;28;20087;-54
2021/08/20 12:24:58;;;;;;;5.78;1.77;;;;;;;;;;5016328;28;20547;-52
2021/08/20 12:27:25;;;;;;;3.65;1.58;;;;;;;;;;5013472;28;20049;-54
2021/08/20 12:30:00;;;;;;;4.78;2.08;;;;;;;;;;4999203;28;20049;-54
2021/08/20 12:32:33;;;;;;;4.65;1.58;;;;;;;;;;5004668;28;20030;-53
2021/08/20 12:35:03;;;;;;;3.55;1.45;;;;;;;;;;5005080;28;20064;-52
2021/08/20 12:37:29;;;;;;;4.50;1.90;;;;;;;;;;5011344;28;20076;-54
2021/08/20 12:40:09;;;;;;;6.82;2.15;;;;;;;;;;4991691;28;20037;-52
2021/08/20 12:42:44;;;;;;;4.55;1.70;;;;;;;;;;4997090;28;20069;-54
2021/08/20 12:45:17;;;;;;;4.22;1.80;;;;;;;;;;5014865;28;20053;-51
2021/08/20 12:47:45;;;;;;;5.07;1.67;;;;;;;;;;4991891;28;20042;-53
2021/08/20 12:50:15;;;;;;;3.97;1.60;;;;;;;;;;4992196;28;20070;-54
2021/08/20 12:52:41;;;;;;;3.75;1.45;;;;;;;;;;4995819;28;20067;-52
2021/08/20 12:55:26;;;;;;;4.38;1.70;;;;;;;;;;5006938;28;20030;-52
2021/08/20 12:57:53;;;;;;;5.25;1.75;;;;;;;;;;4995687;28;20206;-54
2021/08/20 13:00:19;;;;;;;3.85;1.70;;;;;;;;;;4994090;28;20042;-53
2021/08/20 13:02:45;;;;;;;4.30;1.38;;;;;;;;;;4999082;28;20131;-54
2021/08/20 13:05:11;;;;;;;4.38;1.75;;;;;;;;;;5000948;28;20053;-51
2021/08/20 13:07:37;;;;;;;5.40;1.70;;;;;;;;;;5013733;28;20079;-56
2021/08/20 13:10:02;;;;;;;4.53;1.98;;;;;;;;;;4994417;28;20092;-55
2021/08/20 13:12:28;;;;;;;19.55;10.15;;;;;;;;;;5000289;28;20053;-56
2021/08/20 13:14:54;;;;;;;4.97;1.88;;;;;;;;;;5000636;28;20042;-56
2021/08/20 13:17:20;;;;;;;4.93;2.00;;;;;;;;;;5018137;28;20057;-56
2021/08/20 13:19:46;;;;;;;7.13;2.67;;;;;;;;;;4993389;28;20076;-54
2021/08/20 13:22:12;;;;;;;5.00;1.95;;;;;;;;;;5019390;28;20045;-55
2021/08/20 13:24:39;;;;;;;7.40;2.28;;;;;;;;;;5010280;28;20052;-54
2021/08/20 13:27:08;;;;;;;3.88;1.60;;;;;;;;;;5007392;28;20400;-56
2021/08/20 13:29:34;;;;;;;4.60;1.90;;;;;;;;;;5018095;28;20030;-56
2021/08/20 13:32:00;;;;;;;4.32;1.73;;;;;;;;;;5019100;28;20075;-59
2021/08/20 13:34:25;;;;;;;4.35;1.65;;;;;;;;;;5018404;28;20041;-56
2021/08/20 13:36:52;;;;;;;4.85;1.83;;;;;;;;;;5017473;28;20072;-56
2021/08/20 13:39:17;;;;;;;4.40;1.88;;;;;;;;;;5017619;28;20128;-56
2021/08/20 13:41:43;;;;;;;4.13;1.70;;;;;;;;;;5017451;28;20179;-55
2021/08/20 13:44:09;;;;;;;5.47;1.70;;;;;;;;;;5018123;28;20055;-55
2021/08/20 13:46:38;;;;;;;4.72;1.70;;;;;;;;;;5016886;28;20141;-57
2021/08/20 13:49:04;;;;;;;7.63;1.95;;;;;;;;;;5017941;28;20037;-55
2021/08/20 13:51:30;;;;;;;4.60;1.70;;;;;;;;;;5016977;28;20038;-53
2021/08/20 13:53:56;;;;;;;5.65;1.80;;;;;;;;;;5018634;28;20049;-55
2021/08/20 13:56:22;;;;;;;6.35;1.73;;;;;;;;;;5016833;28;20042;-51
2021/08/20 13:58:48;;;;;;;5.95;1.80;;;;;;;;;;5018094;28;20506;-54
2021/08/20 14:01:14;;;;;;;4.93;1.73;;;;;;;;;;5018021;28;20053;-55
2021/08/20 14:03:40;;;;;;;4.22;1.90;;;;;;;;;;5016718;28;20056;-54
2021/08/20 14:06:07;;;;;;;4.50;2.10;;;;;;;;;;5017434;28;20053;-55
2021/08/20 14:08:35;;;;;;;6.05;1.80;;;;;;;;;;5017355;28;20038;-55
2021/08/20 14:11:04;;;;;;;5.38;1.92;;;;;;;;;;5017859;28;20042;-54
2021/08/20 14:13:30;;;;;;;4.75;1.85;;;;;;;;;;5017290;28;20068;-52
2021/08/20 14:15:56;;;;;;;5.53;1.50;;;;;;;;;;5017668;28;20463;-54
2021/08/20 14:18:22;;;;;;;3.80;1.42;;;;;;;;;;5015602;28;20107;-53
2021/08/20 14:20:48;;;;;;;6.30;1.90;;;;;;;;;;5016537;28;20773;-54
2021/08/20 14:23:16;;;;;;;4.68;1.67;;;;;;;;;;5018519;28;20048;-54
2021/08/20 14:25:41;;;;;;;6.60;1.77;;;;;;;;;;5015302;28;20172;-54
2021/08/20 14:28:07;;;;;;;4.68;1.60;;;;;;;;;;5017920;28;20461;-55
2021/08/20 14:30:34;;;;;;;4.32;1.52;;;;;;;;;;5016391;28;20934;-54
2021/08/20 14:33:01;;;;;;;4.55;1.85;;;;;;;;;;5016894;28;20052;-51
2021/08/20 14:35:26;;;;;;;3.83;1.45;;;;;;;;;;4997116;28;20061;-52
2021/08/20 14:37:52;;;;;;;4.28;1.73;;;;;;;;;;5002074;28;20042;-51
2021/08/20 14:40:18;;;;;;;6.18;1.73;;;;;;;;;;5003875;28;20046;-54
2021/08/20 14:42:44;;;;;;;5.05;2.13;;;;;;;;;;4997223;28;20137;-55